KSNS/SNS METAR and TAF weather

Enter ICAO airport designator
Station Type Date Time Source
KSNS METAR 2022/01/26 13:53 UTC NOAA

KSNS 261353Z AUTO 13011KT 9SM CLR 08/04 A3009 RMK AO2 SLP199 T00780044 TSNO


Station Type Date Time Source
KSNS Decoded METAR 2022/01/26 13:53 UTC NOAA

SALINAS MUNICIPAL AIRPORT, CA, United States (KSNS) 36-40N 121-36W 30M
Jan 26, 2022 - 08:53 AM EST / 2022.01.26 1353 UTC
Wind: from the SE (130 degrees) at 13 MPH (11 KT):0
Visibility: 9 mile(s):0
Sky conditions: clear
Temperature: 46.0 F (7.8 C)
Dew Point: 39.9 F (4.4 C)
Relative Humidity: 79%
Pressure (altimeter): 30.09 in. Hg (1018 hPa)
ob: KSNS 261353Z AUTO 13011KT 9SM CLR 08/04 A3009 RMK AO2 SLP199 T00780044 TSNO
cycle: 14

Station Type Date Time Source
KSNS TAF 2022/01/26 12:24 UTC NOAA

TAF KSNS 261123Z 2612/2712 12010KT P6SM SKC
FM262230 VRB03KT P6SM SKC
FM262300 28007KT P6SM SKC
FM270300 31003KT P6SM SKC
FM270900 12005KT P6SM SKC

Example: see airport list